createdAt,value
2018-07-28T00:00:38.829Z,8.40
2018-07-28T00:01:38.788Z,8.00
2018-07-28T00:02:38.715Z,7.90
2018-07-28T00:03:38.641Z,7.70
2018-07-28T00:04:38.597Z,8.20
2018-07-28T00:05:38.543Z,8.10
2018-07-28T00:06:38.481Z,7.70
2018-07-28T00:07:38.404Z,8.40
2018-07-28T00:08:38.363Z,8.10
2018-07-28T00:09:38.297Z,8.60
2018-07-28T00:10:38.242Z,8.00
2018-07-28T00:11:38.159Z,8.10
2018-07-28T00:12:38.104Z,8.60
2018-07-28T00:13:38.052Z,8.60
2018-07-28T00:14:37.993Z,8.30
2018-07-28T00:15:37.929Z,8.10
2018-07-28T00:16:37.876Z,8.20
2018-07-28T00:17:37.815Z,8.90
2018-07-28T00:18:37.740Z,8.10
2018-07-28T00:19:37.692Z,7.50
2018-07-28T00:20:37.629Z,8.30
2018-07-28T00:21:37.572Z,8.40
2018-07-28T00:22:37.496Z,8.00
2018-07-28T00:23:37.447Z,8.50
2018-07-28T00:24:37.391Z,9.10
2018-07-28T00:25:37.323Z,8.60
2018-07-28T00:26:37.267Z,8.40
2018-07-28T00:27:37.196Z,8.30
2018-07-28T00:28:37.138Z,7.80
2018-07-28T00:29:37.080Z,7.90
2018-07-28T00:30:37.020Z,8.00
2018-07-28T00:31:36.967Z,8.20
2018-07-28T00:32:36.907Z,12.10
2018-07-28T00:33:36.835Z,9.80
2018-07-28T00:34:36.790Z,13.20
2018-07-28T00:35:36.719Z,13.10
2018-07-28T00:36:36.700Z,10.80
2018-07-28T00:37:36.598Z,22.80
2018-07-28T00:38:36.540Z,18.10
2018-07-28T00:39:36.488Z,11.40
2018-07-28T00:40:36.410Z,8.50
2018-07-28T00:41:36.363Z,7.60
2018-07-28T00:42:36.290Z,8.40
2018-07-28T00:43:36.241Z,7.70
2018-07-28T00:44:36.174Z,8.40
2018-07-28T00:45:36.108Z,8.60
2018-07-28T00:46:36.046Z,8.90
2018-07-28T00:47:36.006Z,9.00
2018-07-28T00:48:35.929Z,8.70
2018-07-28T00:49:35.879Z,8.50
2018-07-28T00:50:35.854Z,8.50
2018-07-28T00:51:35.738Z,9.40
2018-07-28T00:52:35.687Z,10.30
2018-07-28T00:53:35.626Z,9.70
2018-07-28T00:54:35.591Z,11.30
2018-07-28T00:55:35.502Z,10.60
2018-07-28T00:56:35.439Z,9.70
2018-07-28T00:57:35.382Z,8.90
2018-07-28T00:58:35.319Z,9.40
2018-07-28T00:59:35.272Z,8.50
2018-07-28T01:00:35.208Z,9.10
2018-07-28T01:01:35.145Z,9.20
2018-07-28T01:02:35.070Z,9.70
2018-07-28T01:03:35.022Z,10.90
2018-07-28T01:04:34.964Z,9.90
2018-07-28T01:05:34.904Z,10.20
2018-07-28T01:06:34.848Z,9.70
2018-07-28T01:07:34.776Z,10.40
2018-07-28T01:08:34.714Z,8.30
2018-07-28T01:09:34.664Z,8.10
2018-07-28T01:10:34.589Z,8.10
2018-07-28T01:11:34.537Z,8.60
2018-07-28T01:12:34.487Z,8.30
2018-07-28T01:13:34.405Z,8.20
2018-07-28T01:14:34.356Z,8.80
2018-07-28T01:15:34.300Z,9.90
2018-07-28T01:16:34.222Z,8.60
2018-07-28T01:17:34.171Z,10.20
2018-07-28T01:18:34.105Z,22.40
2018-07-28T01:19:34.054Z,23.60
2018-07-28T01:20:33.979Z,30.20
2018-07-28T01:21:33.939Z,15.80
2018-07-28T01:22:33.853Z,23.40
2018-07-28T01:23:33.801Z,38.00
2018-07-28T01:24:33.743Z,16.40
2018-07-28T01:25:33.673Z,15.10
2018-07-28T01:26:33.611Z,11.60
2018-07-28T01:27:33.591Z,28.20
2018-07-28T01:28:33.494Z,38.50
2018-07-28T01:29:33.434Z,24.00
2018-07-28T01:30:33.370Z,31.60
2018-07-28T01:31:33.319Z,50.40
2018-07-28T01:32:33.241Z,53.60
2018-07-28T01:33:33.195Z,63.40
2018-07-28T01:34:33.133Z,68.10
2018-07-28T01:35:33.063Z,68.80
2018-07-28T01:36:33.020Z,28.90
2018-07-28T01:37:32.954Z,25.80
2018-07-28T01:38:32.899Z,18.40
2018-07-28T01:39:32.821Z,28.80
2018-07-28T01:40:32.793Z,47.00
2018-07-28T01:41:32.694Z,56.00
2018-07-28T01:42:32.659Z,55.70
2018-07-28T01:43:32.603Z,61.00
2018-07-28T01:44:32.520Z,87.10
2018-07-28T01:45:32.461Z,58.90
2018-07-28T01:46:32.404Z,45.00
2018-07-28T01:47:32.328Z,61.20
2018-07-28T01:48:32.290Z,52.90
2018-07-28T01:49:32.252Z,35.90
2018-07-28T01:50:32.152Z,45.50
2018-07-28T01:51:32.092Z,42.80
2018-07-28T01:52:32.041Z,23.60
2018-07-28T01:53:31.965Z,39.00
2018-07-28T01:54:31.902Z,42.70
2018-07-28T01:55:31.842Z,25.30
2018-07-28T01:56:31.794Z,33.40
2018-07-28T01:57:31.726Z,42.10
2018-07-28T01:58:31.665Z,41.00
2018-07-28T01:59:31.590Z,19.40
2018-07-28T02:00:31.535Z,19.60
2018-07-28T02:01:31.470Z,18.50
2018-07-28T02:02:31.412Z,16.30
2018-07-28T02:03:31.377Z,18.00
2018-07-28T02:04:31.283Z,20.60
2018-07-28T02:05:31.232Z,21.00
2018-07-28T02:06:31.164Z,24.70
2018-07-28T02:07:31.095Z,18.90
2018-07-28T02:08:31.034Z,15.70
2018-07-28T02:09:30.991Z,18.60
2018-07-28T02:10:30.925Z,15.60
2018-07-28T02:11:30.864Z,16.30
2018-07-28T02:12:30.794Z,24.90
2018-07-28T02:13:30.730Z,17.80
2018-07-28T02:14:30.684Z,26.50
2018-07-28T02:15:30.615Z,41.20
2018-07-28T02:16:30.537Z,37.30
2018-07-28T02:17:30.485Z,45.80
2018-07-28T02:18:30.433Z,38.90
2018-07-28T02:19:30.368Z,40.30
2018-07-28T02:20:30.312Z,46.20
2018-07-28T02:21:30.230Z,49.00
2018-07-28T02:22:30.179Z,60.70
2018-07-28T02:23:30.125Z,141.10
2018-07-28T02:24:30.057Z,165.60
2018-07-28T02:25:29.994Z,232.50
2018-07-28T02:26:29.934Z,194.20
2018-07-28T02:27:29.881Z,316.20
2018-07-28T02:28:29.805Z,230.40
2018-07-28T02:29:29.754Z,311.80
2018-07-28T02:30:29.691Z,351.20
2018-07-28T02:31:29.617Z,181.60
2018-07-28T02:32:29.560Z,305.30
2018-07-28T02:33:29.512Z,400.30
2018-07-28T02:34:29.432Z,384.70
2018-07-28T02:35:29.387Z,332.20
2018-07-28T02:36:29.315Z,338.40
2018-07-28T02:37:29.245Z,452.30
2018-07-28T02:38:29.204Z,417.30
2018-07-28T02:39:29.133Z,476.80
2018-07-28T02:40:29.068Z,417.70
2018-07-28T02:41:29.007Z,494.80
2018-07-28T02:42:28.945Z,453.50
2018-07-28T02:43:28.877Z,468.10
2018-07-28T02:44:28.816Z,554.10
2018-07-28T02:45:28.774Z,478.60
2018-07-28T02:46:28.693Z,394.70
2018-07-28T02:47:28.635Z,401.40
2018-07-28T02:48:28.574Z,345.90
2018-07-28T02:49:28.515Z,342.00
2018-07-28T02:50:28.453Z,325.50
2018-07-28T02:51:28.397Z,345.50
2018-07-28T02:52:28.325Z,384.20
2018-07-28T02:53:28.273Z,408.30
2018-07-28T02:54:28.209Z,405.30
2018-07-28T02:55:28.154Z,359.30
2018-07-28T02:56:28.091Z,331.90
2018-07-28T02:57:28.026Z,416.50
2018-07-28T02:58:27.962Z,437.90
2018-07-28T02:59:27.906Z,376.80
2018-07-28T03:00:27.846Z,398.40
2018-07-28T03:01:27.779Z,446.10
2018-07-28T03:02:27.734Z,394.80
2018-07-28T03:03:27.646Z,359.70
2018-07-28T03:04:27.581Z,341.20
2018-07-28T03:05:27.543Z,453.90
2018-07-28T03:06:27.457Z,394.50
2018-07-28T03:07:27.429Z,345.10
2018-07-28T03:08:27.336Z,407.30
2018-07-28T03:09:27.288Z,324.30
2018-07-28T03:10:27.208Z,339.50
2018-07-28T03:11:27.150Z,598.70
2018-07-28T03:12:27.093Z,651.10
2018-07-28T03:13:27.035Z,717.10
2018-07-28T03:14:26.974Z,731.50
2018-07-28T03:15:26.915Z,914.40
2018-07-28T03:16:26.866Z,999.90
2018-07-28T03:17:26.775Z,999.90
2018-07-28T03:18:26.733Z,999.90
2018-07-28T03:19:26.655Z,999.90
2018-07-28T03:20:26.620Z,999.90
2018-07-28T03:21:26.540Z,999.90
2018-07-28T03:22:26.485Z,999.90
2018-07-28T03:23:26.417Z,999.90
2018-07-28T03:24:26.345Z,999.90
2018-07-28T03:25:26.299Z,999.90
2018-07-28T03:26:26.228Z,999.90
2018-07-28T03:27:26.168Z,999.90
2018-07-28T03:28:26.110Z,999.90
2018-07-28T03:29:26.049Z,999.90
2018-07-28T03:30:25.987Z,999.90
2018-07-28T03:31:25.914Z,999.90
2018-07-28T03:32:25.853Z,999.90
2018-07-28T03:33:25.805Z,999.90
2018-07-28T03:34:25.729Z,999.90
2018-07-28T03:35:25.669Z,999.90
2018-07-28T03:36:25.608Z,999.90
2018-07-28T03:37:25.550Z,999.90
2018-07-28T03:38:25.490Z,999.90
2018-07-28T03:39:25.432Z,999.90
2018-07-28T03:40:25.366Z,999.90
2018-07-28T03:41:25.292Z,999.90
2018-07-28T03:42:25.230Z,999.90
2018-07-28T03:43:25.187Z,999.90
2018-07-28T03:44:25.137Z,999.90
2018-07-28T03:45:25.057Z,999.90
2018-07-28T03:46:24.994Z,999.90
2018-07-28T03:47:24.920Z,999.90
2018-07-28T03:48:24.869Z,999.90
2018-07-28T03:49:24.795Z,999.90
2018-07-28T03:50:24.739Z,999.90
2018-07-28T03:51:24.704Z,999.90
2018-07-28T03:52:24.612Z,999.90
2018-07-28T03:53:24.546Z,992.10
2018-07-28T03:54:24.497Z,999.90
2018-07-28T03:55:24.431Z,971.20
2018-07-28T03:56:24.406Z,999.90
2018-07-28T03:57:24.299Z,999.90
2018-07-28T03:58:24.245Z,992.40
2018-07-28T03:59:24.187Z,981.30
2018-07-28T04:00:24.118Z,999.90
2018-07-28T04:01:24.062Z,993.00
2018-07-28T04:02:24.002Z,999.90
2018-07-28T04:03:23.942Z,999.90
2018-07-28T04:04:23.861Z,965.20
2018-07-28T04:05:23.815Z,932.80
2018-07-28T04:06:23.740Z,945.40
2018-07-28T04:07:23.683Z,940.10
2018-07-28T04:08:23.620Z,934.20
2018-07-28T04:09:23.591Z,985.10
2018-07-28T04:10:23.495Z,946.80
2018-07-28T04:11:23.447Z,868.50
2018-07-28T04:12:23.370Z,912.70
2018-07-28T04:13:23.309Z,917.70
2018-07-28T04:14:23.298Z,924.50
2018-07-28T04:15:23.181Z,935.20
2018-07-28T04:16:23.131Z,913.30
2018-07-28T04:17:23.054Z,924.80
2018-07-28T04:18:22.992Z,890.20
2018-07-28T04:19:22.940Z,895.20
2018-07-28T04:20:22.878Z,889.10
2018-07-28T04:21:22.818Z,881.00
2018-07-28T04:22:22.755Z,870.40
2018-07-28T04:23:22.697Z,878.20
2018-07-28T04:24:22.624Z,926.10
2018-07-28T04:25:22.570Z,874.90
2018-07-28T04:26:22.518Z,921.50
2018-07-28T04:27:22.436Z,861.00
2018-07-28T04:28:22.381Z,880.10
2018-07-28T04:29:22.316Z,904.90
2018-07-28T04:30:22.247Z,888.40
2018-07-28T04:31:22.191Z,887.00
2018-07-28T04:32:22.136Z,856.30
2018-07-28T04:33:22.072Z,857.70
2018-07-28T04:34:22.006Z,883.30
2018-07-28T04:35:21.953Z,848.10
2018-07-28T04:36:21.903Z,853.80
2018-07-28T04:37:21.822Z,865.80
2018-07-28T04:38:21.757Z,859.00
2018-07-28T04:39:21.685Z,904.30
2018-07-28T04:40:21.641Z,857.00
2018-07-28T04:41:21.575Z,826.30
2018-07-28T04:42:21.500Z,896.70
2018-07-28T04:43:21.443Z,859.10
2018-07-28T04:44:21.393Z,867.60
2018-07-28T04:45:21.333Z,903.50
2018-07-28T04:46:21.255Z,826.40
2018-07-28T04:47:21.199Z,868.30
2018-07-28T04:48:21.129Z,850.30
2018-07-28T04:49:21.119Z,864.40
2018-07-28T04:50:21.008Z,884.00
2018-07-28T04:51:20.938Z,922.70
2018-07-28T04:52:20.906Z,867.10
2018-07-28T04:53:20.814Z,872.20
2018-07-28T04:54:20.769Z,875.80
2018-07-28T04:55:20.696Z,916.80
2018-07-28T04:56:20.638Z,958.50
2018-07-28T04:57:20.570Z,944.10
2018-07-28T04:58:20.512Z,914.50
2018-07-28T04:59:20.460Z,915.00
2018-07-28T05:00:20.378Z,858.60
2018-07-28T05:01:20.325Z,916.60
2018-07-28T05:02:20.255Z,882.80
2018-07-28T05:03:20.192Z,870.00
2018-07-28T05:04:20.152Z,841.70
2018-07-28T05:05:20.066Z,870.90
2018-07-28T05:06:20.012Z,947.10
2018-07-28T05:07:19.959Z,898.80
2018-07-28T05:08:19.894Z,916.30
2018-07-28T05:09:19.821Z,939.50
2018-07-28T05:10:19.756Z,955.10
2018-07-28T05:11:19.710Z,906.20
2018-07-28T05:12:19.646Z,880.70
2018-07-28T05:13:19.579Z,835.80
2018-07-28T05:14:19.518Z,842.00
2018-07-28T05:15:19.461Z,900.00
2018-07-28T05:16:19.383Z,888.40
2018-07-28T05:17:19.332Z,855.20
2018-07-28T05:18:19.265Z,879.60
2018-07-28T05:19:19.214Z,892.40
2018-07-28T05:20:19.139Z,891.20
2018-07-28T05:21:19.084Z,931.60
2018-07-28T05:22:19.016Z,932.70
2018-07-28T05:23:18.960Z,933.30
2018-07-28T05:24:18.904Z,845.80
2018-07-28T05:25:18.838Z,906.00
2018-07-28T05:26:18.776Z,859.80
2018-07-28T05:27:18.703Z,841.50
2018-07-28T05:28:18.639Z,917.10
2018-07-28T05:29:18.593Z,920.50
2018-07-28T05:30:18.519Z,876.00
2018-07-28T05:31:18.465Z,866.40
2018-07-28T05:32:18.402Z,855.40
2018-07-28T05:33:18.334Z,858.60
2018-07-28T05:34:18.267Z,824.70
2018-07-28T05:35:18.220Z,830.70
2018-07-28T05:36:18.162Z,809.30
2018-07-28T05:37:18.103Z,804.80
2018-07-28T05:38:18.035Z,858.20
2018-07-28T05:39:17.959Z,822.40
2018-07-28T05:40:17.918Z,865.40
2018-07-28T05:41:17.860Z,839.50
2018-07-28T05:42:17.781Z,832.00
2018-07-28T05:43:17.724Z,855.80
2018-07-28T05:44:17.668Z,906.20
2018-07-28T05:45:17.605Z,784.50
2018-07-28T05:46:17.531Z,735.50
2018-07-28T05:47:17.476Z,702.70
2018-07-28T05:48:17.423Z,689.70
2018-07-28T05:49:17.341Z,656.10
2018-07-28T05:50:17.299Z,761.50
2018-07-28T05:51:17.229Z,662.10
2018-07-28T05:52:17.167Z,658.00
2018-07-28T05:53:17.117Z,603.60
2018-07-28T05:54:17.047Z,631.70
2018-07-28T05:55:16.974Z,679.20
2018-07-28T05:56:16.929Z,752.80
2018-07-28T05:57:16.860Z,685.00
2018-07-28T05:58:16.805Z,713.30
2018-07-28T05:59:16.732Z,605.10
2018-07-28T06:00:16.674Z,519.60
2018-07-28T06:01:16.616Z,508.50
2018-07-28T06:02:16.622Z,578.00
2018-07-28T06:03:16.478Z,576.50
2018-07-28T06:04:16.419Z,517.30
2018-07-28T06:05:16.368Z,464.20
2018-07-28T06:06:16.311Z,602.50
2018-07-28T06:07:16.260Z,647.50
2018-07-28T06:08:16.177Z,401.00
2018-07-28T06:09:16.120Z,396.20
2018-07-28T06:10:16.056Z,407.00
2018-07-28T06:11:16.003Z,437.60
2018-07-28T06:12:15.936Z,400.10
2018-07-28T06:13:15.882Z,433.90
2018-07-28T06:14:15.844Z,499.70
2018-07-28T06:15:15.761Z,566.80
2018-07-28T06:16:15.692Z,574.10
2018-07-28T06:17:15.632Z,563.30
2018-07-28T06:18:15.564Z,523.40
2018-07-28T06:19:15.511Z,551.30
2018-07-28T06:20:15.513Z,544.40
2018-07-28T06:21:15.381Z,523.10
2018-07-28T06:22:15.334Z,549.70
2018-07-28T06:23:15.270Z,529.90
2018-07-28T06:24:15.200Z,531.30
2018-07-28T06:25:15.149Z,518.90
2018-07-28T06:26:15.085Z,508.70
2018-07-28T06:27:15.029Z,464.50
2018-07-28T06:28:14.972Z,429.80
2018-07-28T06:29:14.903Z,356.00
2018-07-28T06:30:14.853Z,214.20
2018-07-28T06:31:14.776Z,73.20
2018-07-28T06:32:14.714Z,123.20
2018-07-28T06:33:14.663Z,290.20
2018-07-28T06:34:14.601Z,163.20
2018-07-28T06:35:14.540Z,69.10
2018-07-28T06:36:14.481Z,65.90
2018-07-28T06:37:14.419Z,90.00
2018-07-28T06:38:14.354Z,68.90
2018-07-28T06:39:14.283Z,52.40
2018-07-28T06:40:14.243Z,44.70
2018-07-28T06:41:14.178Z,44.70
2018-07-28T06:42:14.115Z,42.90
2018-07-28T06:43:14.046Z,48.80
2018-07-28T06:44:13.998Z,53.30
2018-07-28T06:45:13.941Z,43.50
2018-07-28T06:46:13.879Z,35.80
2018-07-28T06:47:13.841Z,40.70
2018-07-28T06:48:13.748Z,35.10
2018-07-28T06:49:13.692Z,37.10
2018-07-28T06:50:13.624Z,38.70
2018-07-28T06:51:13.554Z,38.30
2018-07-28T06:52:13.517Z,37.00
2018-07-28T06:53:13.448Z,33.50
2018-07-28T06:54:13.386Z,36.60
2018-07-28T06:55:13.318Z,32.70
2018-07-28T06:56:13.266Z,32.80
2018-07-28T06:57:13.219Z,35.90
2018-07-28T06:58:13.151Z,33.10
2018-07-28T06:59:13.087Z,36.30
2018-07-28T07:00:13.031Z,31.00
2018-07-28T07:01:12.961Z,22.10
2018-07-28T07:02:12.903Z,14.80
2018-07-28T07:03:12.842Z,43.20
2018-07-28T07:04:12.781Z,44.30
2018-07-28T07:05:12.729Z,38.40
2018-07-28T07:06:12.662Z,42.60
2018-07-28T07:07:12.608Z,34.10
2018-07-28T07:08:12.542Z,44.10
2018-07-28T07:09:12.498Z,33.50
2018-07-28T07:10:12.421Z,32.80
2018-07-28T07:11:12.379Z,18.10
2018-07-28T07:12:12.314Z,16.60
2018-07-28T07:13:12.250Z,19.70
2018-07-28T07:14:12.193Z,20.10
2018-07-28T07:15:12.135Z,22.20
2018-07-28T07:16:12.072Z,9.70
2018-07-28T07:17:12.016Z,8.70
2018-07-28T07:18:11.949Z,9.60
2018-07-28T07:19:11.898Z,11.20
2018-07-28T07:20:11.834Z,12.10
2018-07-28T07:21:11.767Z,12.20
2018-07-28T07:22:11.724Z,12.00
2018-07-28T07:23:11.662Z,9.80
2018-07-28T07:24:11.585Z,9.50
2018-07-28T07:25:11.532Z,8.70
2018-07-28T07:26:11.479Z,6.30
2018-07-28T07:27:11.420Z,5.90
2018-07-28T07:28:11.345Z,7.20
2018-07-28T07:29:11.300Z,6.30
2018-07-28T07:30:11.240Z,6.90
2018-07-28T07:31:11.173Z,4.70
2018-07-28T07:32:11.110Z,5.30
2018-07-28T07:33:11.058Z,4.90
2018-07-28T07:34:10.994Z,3.10
2018-07-28T07:35:10.936Z,3.40
2018-07-28T07:36:10.929Z,2.90
2018-07-28T07:37:10.803Z,2.70
2018-07-28T07:38:10.746Z,2.70
2018-07-28T07:39:10.693Z,2.40
2018-07-28T07:40:10.651Z,2.50
2018-07-28T07:41:10.574Z,2.60
2018-07-28T07:42:10.526Z,2.70
2018-07-28T07:43:10.460Z,2.20
2018-07-28T07:44:10.399Z,2.80
2018-07-28T07:45:10.337Z,2.30
2018-07-28T07:46:10.276Z,2.30
2018-07-28T07:47:10.258Z,2.60
2018-07-28T07:48:10.153Z,2.20
2018-07-28T07:49:10.096Z,2.00
2018-07-28T07:50:10.045Z,2.00
2018-07-28T07:51:09.982Z,2.20
2018-07-28T07:52:09.923Z,1.60
2018-07-28T07:53:09.864Z,1.60
2018-07-28T07:54:09.821Z,1.60
2018-07-28T07:55:09.735Z,1.70
2018-07-28T07:56:09.687Z,1.40
2018-07-28T07:57:09.632Z,1.40
2018-07-28T07:58:09.556Z,1.70
2018-07-28T07:59:09.500Z,1.60
2018-07-28T08:00:09.448Z,1.40
2018-07-28T08:01:09.418Z,1.40
2018-07-28T08:02:09.309Z,1.60
2018-07-28T08:03:09.272Z,1.80
2018-07-28T08:04:09.214Z,1.80
2018-07-28T08:05:09.155Z,1.60
2018-07-28T08:06:09.083Z,1.60
2018-07-28T08:07:09.040Z,1.60
2018-07-28T08:08:08.971Z,1.50
2018-07-28T08:09:08.904Z,1.50
2018-07-28T08:10:08.849Z,1.30
2018-07-28T08:11:08.801Z,1.60
2018-07-28T08:12:08.724Z,1.80
2018-07-28T08:13:08.667Z,1.80
2018-07-28T08:14:08.615Z,1.60
2018-07-28T08:15:08.546Z,1.40
2018-07-28T08:16:08.481Z,1.80
2018-07-28T08:17:08.422Z,1.40
2018-07-28T08:18:08.375Z,1.50
2018-07-28T08:19:08.308Z,1.40
2018-07-28T08:20:08.252Z,1.60
2018-07-28T08:21:08.243Z,1.50
2018-07-28T08:22:08.129Z,2.50
2018-07-28T08:23:08.079Z,1.90
2018-07-28T08:24:08.037Z,1.60
2018-07-28T08:25:07.967Z,1.80
2018-07-28T08:26:07.905Z,1.70
2018-07-28T08:27:07.840Z,1.60
2018-07-28T08:28:07.776Z,1.50
2018-07-28T08:29:07.727Z,1.60
2018-07-28T08:30:07.661Z,1.60
2018-07-28T08:31:07.604Z,1.40
2018-07-28T08:32:07.542Z,2.50
2018-07-28T08:33:07.490Z,2.00
2018-07-28T08:34:07.414Z,2.20
2018-07-28T08:35:07.356Z,2.20
2018-07-28T08:36:07.308Z,2.10
2018-07-28T08:37:07.253Z,1.80
2018-07-28T08:38:07.192Z,2.10
2018-07-28T08:39:07.136Z,1.90
2018-07-28T08:40:07.164Z,2.20
2018-07-28T08:41:07.005Z,1.80
2018-07-28T08:42:06.946Z,1.70
2018-07-28T08:43:06.886Z,1.50
2018-07-28T08:44:06.835Z,1.60
2018-07-28T08:45:06.772Z,1.70
2018-07-28T08:46:06.722Z,1.70
2018-07-28T08:47:06.651Z,1.70
2018-07-28T08:48:06.597Z,1.90
2018-07-28T08:49:06.614Z,1.90
2018-07-28T08:50:06.474Z,2.20
2018-07-28T08:51:06.421Z,1.70
2018-07-28T08:52:06.386Z,1.80
2018-07-28T08:53:06.306Z,1.70
2018-07-28T08:54:06.250Z,1.90
2018-07-28T08:55:06.186Z,1.70
2018-07-28T08:56:06.121Z,1.90
2018-07-28T08:57:06.058Z,2.00
2018-07-28T08:58:05.999Z,1.90
2018-07-28T08:59:05.948Z,2.00
2018-07-28T09:00:05.888Z,2.20
2018-07-28T09:01:05.847Z,1.90
2018-07-28T09:02:05.761Z,1.70
2018-07-28T09:03:05.714Z,1.70
2018-07-28T09:04:05.666Z,1.90
2018-07-28T09:05:05.600Z,1.80
2018-07-28T09:06:05.606Z,1.80
2018-07-28T09:07:05.475Z,1.90
2018-07-28T09:08:05.415Z,1.90
2018-07-28T09:09:05.361Z,1.90
2018-07-28T09:10:05.295Z,2.00
2018-07-28T09:11:05.246Z,1.80
2018-07-28T09:12:05.188Z,2.20
2018-07-28T09:13:05.149Z,1.80
2018-07-28T09:14:05.067Z,1.90
2018-07-28T09:15:05.015Z,1.80
2018-07-28T09:16:04.951Z,1.70
2018-07-28T09:17:04.877Z,1.80
2018-07-28T09:18:04.886Z,2.10
2018-07-28T09:19:04.773Z,1.80
2018-07-28T09:20:04.712Z,1.90
2018-07-28T09:21:04.650Z,2.00
2018-07-28T09:22:04.602Z,2.00
2018-07-28T09:23:04.540Z,1.70
2018-07-28T09:24:04.478Z,1.50
2018-07-28T09:25:04.420Z,1.80
2018-07-28T09:26:04.353Z,1.90
2018-07-28T09:27:04.309Z,1.70
2018-07-28T09:28:04.282Z,1.60
2018-07-28T09:29:04.179Z,1.60
2018-07-28T09:30:04.136Z,1.90
2018-07-28T09:31:04.070Z,1.80
2018-07-28T09:32:04.022Z,2.20
2018-07-28T09:33:03.967Z,2.00
2018-07-28T09:34:03.893Z,2.10
2018-07-28T09:35:03.835Z,1.90
2018-07-28T09:36:03.781Z,2.20
2018-07-28T09:37:03.768Z,2.10
2018-07-28T09:38:03.655Z,2.20
2018-07-28T09:39:03.596Z,2.10
2018-07-28T09:40:03.535Z,2.10
2018-07-28T09:41:03.500Z,2.30
2018-07-28T09:42:03.431Z,2.30
2018-07-28T09:43:03.372Z,2.30
2018-07-28T09:44:03.324Z,2.20
2018-07-28T09:45:03.256Z,2.30
2018-07-28T09:46:03.207Z,1.90
2018-07-28T09:47:03.207Z,2.20
2018-07-28T09:48:03.097Z,1.90
2018-07-28T09:49:03.025Z,2.30
2018-07-28T09:50:03.006Z,2.10
2018-07-28T09:51:02.913Z,2.20
2018-07-28T09:52:02.857Z,2.20
2018-07-28T09:53:02.781Z,2.60
2018-07-28T09:54:02.733Z,2.60
2018-07-28T09:55:02.677Z,2.40
2018-07-28T09:56:02.633Z,2.70
2018-07-28T09:57:02.550Z,2.40
2018-07-28T09:58:02.505Z,2.00
2018-07-28T09:59:02.445Z,2.10
2018-07-28T10:00:02.388Z,2.20
2018-07-28T10:01:02.320Z,2.00
2018-07-28T10:02:02.277Z,2.20
2018-07-28T10:03:02.199Z,2.10
2018-07-28T10:04:02.210Z,2.30
2018-07-28T10:05:02.106Z,2.20
2018-07-28T10:06:02.030Z,2.50
2018-07-28T10:07:01.979Z,2.70
2018-07-28T10:08:01.914Z,2.40
2018-07-28T10:09:01.854Z,2.20
2018-07-28T10:10:01.803Z,2.20
2018-07-28T10:11:01.744Z,2.30
2018-07-28T10:12:01.698Z,2.10
2018-07-28T10:13:01.650Z,2.20
2018-07-28T10:14:01.564Z,2.10
2018-07-28T10:15:01.521Z,2.10
2018-07-28T10:16:01.463Z,2.00
2018-07-28T10:17:01.409Z,1.90
2018-07-28T10:18:01.344Z,2.10
2018-07-28T10:19:01.285Z,2.00
2018-07-28T10:20:01.234Z,1.80
2018-07-28T10:21:01.197Z,2.10
2018-07-28T10:22:01.106Z,1.70
2018-07-28T10:23:01.134Z,1.80
2018-07-28T10:24:00.998Z,2.20
2018-07-28T10:25:00.944Z,2.10
2018-07-28T10:26:00.870Z,2.30
2018-07-28T10:27:00.820Z,2.40
2018-07-28T10:28:00.760Z,2.10
2018-07-28T10:29:00.700Z,2.20
2018-07-28T10:30:00.652Z,2.20
2018-07-28T10:31:00.593Z,1.80
2018-07-28T10:32:00.553Z,2.00
2018-07-28T10:33:00.472Z,2.40
2018-07-28T10:34:00.435Z,2.30
2018-07-28T10:35:00.367Z,2.30
2018-07-28T10:36:00.307Z,2.30
2018-07-28T10:37:00.246Z,2.50
2018-07-28T10:38:00.193Z,2.10
2018-07-28T10:39:00.123Z,1.90
2018-07-28T10:40:00.084Z,2.10
2018-07-28T10:41:00.005Z,2.60
2018-07-28T10:41:59.955Z,1.60
2018-07-28T10:42:59.899Z,1.90
2018-07-28T10:43:59.846Z,1.80
2018-07-28T10:44:59.784Z,2.40
2018-07-28T10:45:59.733Z,1.90
2018-07-28T10:46:59.665Z,2.00
2018-07-28T10:47:59.621Z,2.10
2018-07-28T10:48:59.552Z,2.10
2018-07-28T10:49:59.506Z,1.80
2018-07-28T10:50:59.442Z,2.00
2018-07-28T10:51:59.473Z,1.90
2018-07-28T10:52:59.336Z,1.80
2018-07-28T10:53:59.271Z,1.60
2018-07-28T10:54:59.216Z,1.80
2018-07-28T10:55:59.153Z,2.00
2018-07-28T10:56:59.095Z,2.00
2018-07-28T10:57:59.038Z,1.80
2018-07-28T10:58:58.979Z,2.00
2018-07-28T10:59:58.971Z,1.90
2018-07-28T11:00:58.875Z,1.80
2018-07-28T11:01:58.810Z,1.70
2018-07-28T11:02:58.766Z,1.90
2018-07-28T11:03:58.693Z,1.90
2018-07-28T11:04:58.636Z,2.20
2018-07-28T11:05:58.594Z,2.00
2018-07-28T11:06:58.529Z,2.30
2018-07-28T11:07:58.481Z,2.00
2018-07-28T11:08:58.421Z,2.10
2018-07-28T11:09:58.363Z,2.00
2018-07-28T11:10:58.304Z,2.00
2018-07-28T11:11:58.250Z,2.20
2018-07-28T11:12:58.182Z,1.90
2018-07-28T11:13:58.140Z,2.30
2018-07-28T11:14:58.081Z,2.20
2018-07-28T11:15:58.010Z,2.10
2018-07-28T11:16:57.952Z,2.10
2018-07-28T11:17:57.932Z,2.20
2018-07-28T11:18:57.875Z,2.20
2018-07-28T11:19:57.785Z,2.20
2018-07-28T11:20:57.732Z,2.20
2018-07-28T11:21:57.665Z,2.20
2018-07-28T11:22:57.619Z,2.20
2018-07-28T11:23:57.564Z,2.40
2018-07-28T11:24:57.495Z,2.30
2018-07-28T11:25:57.511Z,2.10
2018-07-28T11:26:57.379Z,2.40
2018-07-28T11:27:57.329Z,2.40
2018-07-28T11:28:57.278Z,2.50
2018-07-28T11:29:57.218Z,2.20
2018-07-28T11:30:57.161Z,2.40
2018-07-28T11:31:57.142Z,1.90
2018-07-28T11:32:57.037Z,2.20
2018-07-28T11:33:57.000Z,2.20
2018-07-28T11:34:56.936Z,2.20
2018-07-28T11:35:56.867Z,2.20
2018-07-28T11:36:56.807Z,2.30
2018-07-28T11:37:56.813Z,2.30
2018-07-28T11:38:56.701Z,2.40
2018-07-28T11:39:56.639Z,2.50
2018-07-28T11:40:56.596Z,2.90
2018-07-28T11:41:56.536Z,2.60
2018-07-28T11:42:56.472Z,2.50
2018-07-28T11:43:56.417Z,2.50
2018-07-28T11:44:56.360Z,2.30
2018-07-28T11:45:56.430Z,2.40
2018-07-28T11:46:56.237Z,2.60
2018-07-28T11:47:56.237Z,2.60
2018-07-28T11:48:56.119Z,2.70
2018-07-28T11:49:56.082Z,2.70
2018-07-28T11:50:56.010Z,2.90
2018-07-28T11:51:55.946Z,3.10
2018-07-28T11:52:55.899Z,2.60
2018-07-28T11:53:55.843Z,2.70
2018-07-28T11:54:55.771Z,2.70
2018-07-28T11:55:55.726Z,2.60
2018-07-28T11:56:55.665Z,2.50
2018-07-28T11:57:55.624Z,2.40
2018-07-28T11:58:55.549Z,2.20
2018-07-28T11:59:55.501Z,2.30
2018-07-28T12:00:55.430Z,2.60
2018-07-28T12:01:55.381Z,2.90
2018-07-28T12:02:55.322Z,2.50
2018-07-28T12:03:55.273Z,2.40
2018-07-28T12:04:55.203Z,2.50
2018-07-28T12:05:55.150Z,2.40
2018-07-28T12:06:55.095Z,2.60
2018-07-28T12:07:55.126Z,2.60
2018-07-28T12:08:54.981Z,2.50
2018-07-28T12:09:54.913Z,2.30
2018-07-28T12:10:54.854Z,2.40
2018-07-28T12:11:54.809Z,2.80
2018-07-28T12:12:54.742Z,2.60
2018-07-28T12:13:54.696Z,2.50
2018-07-28T12:14:54.638Z,2.50
2018-07-28T12:15:54.578Z,2.50
2018-07-28T12:16:54.517Z,2.80
2018-07-28T12:17:54.473Z,2.50
2018-07-28T12:18:54.402Z,2.20
2018-07-28T12:19:54.347Z,2.70
2018-07-28T12:20:54.282Z,2.30
2018-07-28T12:21:54.227Z,2.40
2018-07-28T12:22:54.165Z,2.40
2018-07-28T12:23:54.115Z,2.60
2018-07-28T12:24:54.060Z,2.50
2018-07-28T12:25:54.003Z,2.50
2018-07-28T12:26:53.944Z,2.50
2018-07-28T12:27:53.875Z,2.60
2018-07-28T12:28:53.813Z,2.80
2018-07-28T12:29:53.780Z,2.50
2018-07-28T12:30:53.712Z,2.80
2018-07-28T12:31:53.654Z,3.20
2018-07-28T12:32:53.597Z,2.70
2018-07-28T12:33:53.549Z,2.60
2018-07-28T12:34:53.511Z,2.30
2018-07-28T12:35:53.437Z,2.40
2018-07-28T12:36:53.382Z,2.30
2018-07-28T12:37:53.310Z,2.20
2018-07-28T12:38:53.255Z,2.40
2018-07-28T12:39:53.203Z,2.50
2018-07-28T12:40:53.161Z,2.70
2018-07-28T12:41:53.073Z,2.30
2018-07-28T12:42:53.028Z,2.40
2018-07-28T12:43:52.971Z,2.30
2018-07-28T12:44:52.913Z,2.40
2018-07-28T12:45:52.850Z,2.10
2018-07-28T12:46:52.800Z,2.20
2018-07-28T12:47:52.740Z,2.10
2018-07-28T12:48:52.672Z,2.20
2018-07-28T12:49:52.625Z,2.40
2018-07-28T12:50:52.566Z,2.30
2018-07-28T12:51:52.505Z,2.20
2018-07-28T12:52:52.448Z,2.20
2018-07-28T12:53:52.400Z,2.20
2018-07-28T12:54:52.343Z,2.60
2018-07-28T12:55:52.274Z,2.50
2018-07-28T12:56:52.218Z,2.00